Other Surface Observations
Issued by NWS Great Falls, MT

Home | Current Version | Previous Version | Text Only | Print | Product List | Glossary On
Versions: 1 2 3 4 5 6 7 8 9 10 11 12 13 14 15 16 17 18 19 20 21 22 23 24 25 26 27 28 29 30 31 32 33 34 35 36 37 38 39 40 41 42 43 44 45 46 47 48 49 50
000
SXUS55 KTFX 271529
OSOTFX
AREA AWOS OBSERVATIONS
NATIONAL WEATHER SERVICE GREAT FALLS MT
0929 AM MDT SAT AUG 27 2016

METAR KPO1 271530Z AUTO 00000KT 10SM 17/08 A2990 RMK POPLAR
METAR K1S3 271530Z AUTO 00000KT 10SM 17/11 A2989 RMK FORSYTH
METAR KS71 271530Z AUTO 09004KT 10SM 15/09 A2977 RMK CHINOOK
METAR K38S 271530Z AUTO 17005KT 10SM 18/01 A2998 RMK DEER LODGE
METAR K6S5 271530Z AUTO 17010KT 10SM 17/02 A2993 RMK HAMILTON
METAR KS59 271530Z AUTO 00000KT 10SM 17/06 A2977 RMK LIBBY
METAR K88M 271530Z AUTO 15014G17KT 10SM 21/05 A2975 RMK EUREKA



USA.gov is the U.S. government's official web portal to all federal, state and local government web resources and services.